Terminal Aerodrome Forecast
Issued by NWS

Home | Current Version | Previous Version | Text Only | Print | Product List | Glossary On
Versions: 1 2 3 4 5 6 7 8 9 10 11 12 13 14 15 16 17 18 19
000
FTUS46 KPQR 282332
TAFONP
TAF
KONP 282332Z 2900/2924 20015G25KT P6SM OVC060
     FM290300 18017G25KT 5SM -RA BR SCT025 OVC040
     FM290500 19022G32KT 5SM -RA BR OVC025
     FM290900 19028G38KT 4SM RA BR OVC020
     FM291300 20025G35KT 2SM -RA BR BKN007 OVC015
     FM292100 21012G20KT 5SM -SHRA BR SCT007 BKN015 OVC030=

USA.gov is the U.S. government's official web portal to all federal, state and local government web resources and services.